Dickinson Theodore Roosevelt Regional Airport Dickinson US
ICAO: KDIK
IATA: DIK
Category: Medium
Scheduled Services: No

Elevation: 2592 ft
TransAlt. 18000 ft.

Airport Communications:
MINNEAPOLIS CNTR:124.25
GRAND FORKS RDO:122.2
CTAF/UNICOM:123

KDIK Zoom In..

If you have problems with the map follow the link
https://www.worldairports.se/pages/airport.php?
ICAO=KDIK

Runways:

(A) RW 07 length 4699 ft width 75 ft
---- / hdg 70

(B) RW 14 length 6399 ft width 100 ft
---- / hdg 140

(C) RW 25 length 4699 ft width 75 ft
---- / hdg 250

(D) RW 32 length 6399 ft width 100 ft
ILS 108.30 / hdg 320

Location; KDIK
Day. 19 / Time. 17.56 Zulu
* Altimeter: 30.48
* Temperature: -19° c. 2.2°f.
* Wind from: 310° Speed 08 kn.
Dewpoint: -24° c.
Visibility: 10 Statute Miles.
Clouds: Few 4900 ft.

KDIK 191756Z AUTO 31008KT 10SM FEW049 M19/M24 A3048 RMK AO2 SLP401 T11941244 11194 21244 53004


Wind From 310°
Speed 08 kn.

 
 
jpsmedia worldairports.se 2020   terms of use